Lafayette Regional Airport
KLFT : now visible

Airfield :











YOU CAN JOIN US ON...

 
LOGIN :

Register | Disclaimer

   EN    FR    IT 

 









Legend :    VFR   Marginal VFR   IFR   Intensive IFR   Very Intensive IFR
Visi :
Ceiling :
>= 8 km
>= 3000ft
5 to 8 km
1000 to 3000 ft
1500m to 5 km
500 to 1000 ft
800 to 1500m
200 to 500 ft
< 800m
< 200 ft
Symbols :   Thunderstorms  Fog  Heavy snow  Heavy precipitations  Wind > 20 kt






- Airport Elevation : 42 ft
- IATA code : LFT


KLFT - Lafayette Regional

CURRENT METAR :
  • 101153Z 16006KT 10SM VCTS -RA FEW065 BKN100 OVC120 19/18 A2973 RMK AO2 LTG DSNT ALQDS RAB45 TSE02B14E31 SLP065 P0000 60080 70080 T01890178 10244 20189 50008

EXPIRED METARs :
  • 101133Z 9SM BKN110 19/18 A2974 RMK AO2 LTG DSNT ALQDS TSE02B14E31 T01890178
  • 101120Z 00000KT 10SM TS FEW090 BKN110 19/18 A2973 RMK AO2 LTG DSNT E-SW TSE02B14 T01890178
  • 101102Z 00000KT 10SM VCTS BKN110 19/18 A2975 RMK AO2 LTG DSNT E-SW TSE02 T01890178
  • 101053Z 16004KT 10SM TS FEW100 19/18 A2975 RMK AO2 PK WND 24030/1002 LTG DSNT E-SW RAE40 TSE25B34 PRESRR SLP074 P0013 T01890178
  • 101040Z 05007KT 020V080 10SM TS FEW060 BKN095 BKN120 19/17 A2971 RMK AO2 PK WND 24030/1002 LTG DSNT E-SW RAE40 TSE25B34 P0013 T01890172
  • 101031Z 02008KT 8SM VCTS -RA FEW060 BKN095 OVC110 19/17 A2970 RMK AO2 PK WND 24030/1002 LTG DSNT ALQDS TSE25 P0013 T01940172
  • 101008Z AUTO 30010G30KT 6SM -TSRA FEW006 BKN038 OVC085 22/17 A2971 RMK AO2 PK WND 24030/1002 LTG DSNT ALQDS P0009 T02170172
  • 101000Z AUTO 24011G14KT 2SM +TSRA FEW008 SCT014 OVC040 21/17 A2973 RMK AO2 LTG DSNT ALQDS P0008 T02110172
  • 100953Z AUTO VRB05G41KT 3/4SM +TSRA FEW004 SCT008 OVC020 20/16 A2972 RMK AO2 PK WND 26041/0947 LTG DSNT ALQDS RAE0856B42 TSB34 SLP064 P0058 T02000161
  • 100944Z AUTO 31010G19KT 1 3/4SM +TSRA BR FEW006 BKN010 OVC015 23/22 A2974 RMK AO2 LTG DSNT ALQDS RAE0856B42 TSB34 PRESRR P0017 T02330222
  • 100928Z AUTO 25010G19KT 7SM VCTS BKN010 BKN015 OVC020 23/22 A2971 RMK AO2 LTG DSNT ALQDS RAE0856 P0000 T02330222
  • 100908Z AUTO 24013G18KT 8SM BKN010 OVC015 23/22 A2970 RMK AO2 LTG DSNT ALQDS RAE0856 P0000 T02330222

TAF KLFT
Valid from the 10 at 11:00 until the 11 at 12:00 UTC


101128Z 1011/1112 VRB06KT P6SM VCTS SCT020CB OVC120
TEMPO 1012/1015 4SM BR SCT002 BKN025
FM101500 27009KT P6SM SCT003 BKN018
FM101700 30012KT P6SM FEW006 SCT017
FM102100 33009KT P6SM FEW020 SCT080
FM110200 36008KT P6SM SKC
KZHU FIR / North America



MET'MAP, your aeronautical weather chart ! - Copyright ORBIFLY December 2007 - Disclaimer

ORBIFLY MET'MAP TEAM :

Programming & Development : Alexandra Zaïnal
Concept & original design : Baudouin d'Aumeries
Assistance for programming : Marc-Olivier Méhu
Technical & hardware support : Manuel Goepfert

Contact : metmap@orbifly.com




SOURCES & CREDITS :

   NOAA       Earth
Advisory